createdAt,value
2022-11-09T00:01:25.527Z,13.00
2022-11-09T00:04:11.236Z,13.10
2022-11-09T00:06:56.936Z,13.00
2022-11-09T00:09:43.644Z,13.10
2022-11-09T00:12:29.470Z,13.10
2022-11-09T00:15:15.130Z,13.00
2022-11-09T00:18:02.833Z,13.10
2022-11-09T00:20:49.549Z,13.10
2022-11-09T00:23:36.225Z,13.10
2022-11-09T00:26:24.366Z,13.10
2022-11-09T00:29:10.263Z,13.10
2022-11-09T00:31:55.908Z,13.10
2022-11-09T00:34:41.463Z,13.10
2022-11-09T00:37:30.881Z,13.10
2022-11-09T00:40:17.008Z,13.10
2022-11-09T00:43:03.157Z,13.10
2022-11-09T00:45:48.955Z,13.10
2022-11-09T00:48:35.607Z,13.10
2022-11-09T00:51:21.115Z,13.10
2022-11-09T00:54:08.198Z,13.00
2022-11-09T00:56:54.557Z,13.00
2022-11-09T00:59:40.707Z,13.00
2022-11-09T01:02:26.509Z,13.00
2022-11-09T01:05:12.601Z,13.00
2022-11-09T01:07:58.829Z,13.00
2022-11-09T01:10:49.473Z,13.00
2022-11-09T01:13:36.484Z,12.90
2022-11-09T01:16:23.590Z,12.90
2022-11-09T01:19:09.354Z,13.00
2022-11-09T01:21:55.421Z,13.00
2022-11-09T01:24:40.872Z,12.90
2022-11-09T01:27:26.981Z,12.90
2022-11-09T01:30:13.149Z,12.90
2022-11-09T01:32:58.978Z,12.90
2022-11-09T01:35:45.360Z,12.90
2022-11-09T01:38:30.850Z,12.90
2022-11-09T01:41:28.111Z,12.90
2022-11-09T01:44:13.347Z,12.90
2022-11-09T01:47:11.774Z,12.90
2022-11-09T01:50:01.033Z,12.90
2022-11-09T01:52:49.165Z,12.90
2022-11-09T01:55:35.689Z,12.90
2022-11-09T01:58:28.793Z,12.90
2022-11-09T02:01:17.743Z,12.90
2022-11-09T02:04:16.805Z,12.90
2022-11-09T02:07:04.516Z,12.90
2022-11-09T02:09:54.120Z,12.90
2022-11-09T02:12:40.425Z,12.90
2022-11-09T02:15:27.057Z,12.90
2022-11-09T02:18:12.953Z,12.90
2022-11-09T02:20:59.340Z,12.90
2022-11-09T02:23:45.392Z,12.90
2022-11-09T02:26:53.194Z,12.80
2022-11-09T02:29:44.108Z,12.80
2022-11-09T02:32:30.619Z,12.90
2022-11-09T02:35:17.791Z,12.80
2022-11-09T02:38:03.828Z,12.80
2022-11-09T02:40:52.585Z,12.80
2022-11-09T02:43:39.592Z,12.80
2022-11-09T02:46:31.390Z,12.80
2022-11-09T02:49:17.996Z,12.80
2022-11-09T02:52:04.783Z,12.80
2022-11-09T02:54:50.632Z,12.80
2022-11-09T02:57:36.422Z,12.80
2022-11-09T03:00:23.235Z,12.80
2022-11-09T03:03:09.565Z,12.80
2022-11-09T03:05:55.505Z,12.80
2022-11-09T03:08:41.946Z,12.80
2022-11-09T03:11:28.982Z,12.80
2022-11-09T03:14:15.306Z,12.80
2022-11-09T03:17:07.209Z,12.80
2022-11-09T03:19:54.166Z,12.80
2022-11-09T03:22:40.348Z,12.80
2022-11-09T03:25:28.128Z,12.80
2022-11-09T03:28:15.049Z,12.80
2022-11-09T03:31:03.593Z,12.80
2022-11-09T03:33:50.361Z,12.80
2022-11-09T03:36:36.177Z,12.80
2022-11-09T03:39:21.910Z,12.80
2022-11-09T03:42:07.861Z,12.80
2022-11-09T03:44:57.054Z,12.80
2022-11-09T03:47:46.982Z,12.80
2022-11-09T03:50:34.361Z,12.70
2022-11-09T03:53:20.145Z,12.80
2022-11-09T03:56:07.225Z,12.80
2022-11-09T03:58:52.365Z,12.80
2022-11-09T04:01:38.543Z,12.80
2022-11-09T04:04:24.664Z,12.70
2022-11-09T04:07:11.566Z,12.70
2022-11-09T04:09:58.608Z,12.70
2022-11-09T04:12:44.441Z,12.70
2022-11-09T04:15:29.889Z,12.80
2022-11-09T04:18:18.374Z,12.70
2022-11-09T04:21:04.348Z,12.70
2022-11-09T04:23:50.559Z,12.70
2022-11-09T04:26:36.228Z,12.70
2022-11-09T04:29:22.213Z,12.70
2022-11-09T04:32:07.816Z,12.70
2022-11-09T04:34:53.764Z,12.70
2022-11-09T04:37:41.664Z,12.70
2022-11-09T04:40:29.455Z,12.70
2022-11-09T04:43:16.050Z,12.70
2022-11-09T04:46:05.156Z,12.60
2022-11-09T04:48:50.600Z,12.70
2022-11-09T04:51:36.940Z,12.60
2022-11-09T04:54:22.496Z,12.60
2022-11-09T04:57:08.585Z,12.60
2022-11-09T04:59:54.249Z,12.60
2022-11-09T05:02:41.072Z,12.60
2022-11-09T05:05:26.911Z,12.60
2022-11-09T05:08:12.706Z,12.60
2022-11-09T05:10:58.940Z,12.60
2022-11-09T05:13:44.864Z,12.60
2022-11-09T05:16:32.399Z,12.60
2022-11-09T05:19:17.877Z,12.60
2022-11-09T05:22:23.574Z,12.70
2022-11-09T05:25:10.172Z,12.60
2022-11-09T05:27:55.857Z,12.70
2022-11-09T05:30:41.713Z,12.70
2022-11-09T05:33:27.529Z,12.60
2022-11-09T05:36:13.198Z,12.60
2022-11-09T05:38:59.329Z,12.60
2022-11-09T05:41:44.967Z,12.70
2022-11-09T05:44:31.765Z,12.60
2022-11-09T05:47:19.105Z,12.60
2022-11-09T05:50:05.866Z,12.60
2022-11-09T05:52:54.308Z,12.60
2022-11-09T05:55:40.622Z,12.50
2022-11-09T05:58:26.273Z,12.60
2022-11-09T06:01:14.235Z,12.60
2022-11-09T06:04:00.006Z,12.60
2022-11-09T06:06:45.919Z,12.60
2022-11-09T06:09:32.794Z,12.60
2022-11-09T06:12:18.473Z,12.60
2022-11-09T06:15:04.332Z,12.60
2022-11-09T06:17:57.447Z,12.60
2022-11-09T06:20:43.911Z,12.60
2022-11-09T06:23:30.384Z,12.70
2022-11-09T06:26:15.962Z,12.70
2022-11-09T06:34:37.128Z,12.60
2022-11-09T06:37:22.840Z,12.70
2022-11-09T06:40:10.205Z,12.70
2022-11-09T06:43:00.113Z,12.60
2022-11-09T06:45:45.674Z,12.60
2022-11-09T06:48:32.773Z,12.60
2022-11-09T06:51:18.769Z,12.70
2022-11-09T06:54:04.304Z,12.70
2022-11-09T06:56:53.935Z,12.70
2022-11-09T06:59:39.791Z,12.70
2022-11-09T07:02:25.988Z,12.70
2022-11-09T07:05:12.244Z,12.70
2022-11-09T07:07:58.684Z,12.70
2022-11-09T07:10:45.542Z,12.70
2022-11-09T07:13:31.815Z,12.70
2022-11-09T07:16:18.192Z,12.70
2022-11-09T07:19:04.032Z,12.70
2022-11-09T07:21:50.396Z,12.70
2022-11-09T07:24:36.050Z,12.80
2022-11-09T07:27:27.313Z,12.80
2022-11-09T07:30:14.761Z,12.80
2022-11-09T07:33:21.095Z,12.80
2022-11-09T07:36:07.729Z,12.90
2022-11-09T07:38:53.841Z,12.90
2022-11-09T07:41:40.009Z,12.90
2022-11-09T07:44:26.249Z,13.00
2022-11-09T07:47:17.159Z,13.00
2022-11-09T07:50:04.538Z,13.00
2022-11-09T07:52:50.285Z,13.00
2022-11-09T07:55:37.580Z,13.10
2022-11-09T07:58:24.041Z,13.00
2022-11-09T08:01:10.736Z,13.00
2022-11-09T08:03:56.418Z,13.10
2022-11-09T08:06:42.047Z,13.10
2022-11-09T08:09:28.918Z,13.10
2022-11-09T08:12:14.562Z,13.10
2022-11-09T08:15:00.158Z,13.10
2022-11-09T08:17:46.094Z,13.10
2022-11-09T08:20:31.983Z,13.20
2022-11-09T08:23:19.005Z,13.20
2022-11-09T08:26:06.108Z,13.20
2022-11-09T08:28:51.780Z,13.30
2022-11-09T08:31:37.316Z,13.30
2022-11-09T08:34:22.917Z,13.30
2022-11-09T08:37:08.566Z,13.30
2022-11-09T08:39:54.060Z,13.40
2022-11-09T08:42:40.118Z,13.40
2022-11-09T08:45:25.976Z,13.40
2022-11-09T08:48:12.909Z,13.30
2022-11-09T08:51:00.234Z,13.30
2022-11-09T08:53:46.149Z,13.30
2022-11-09T08:56:32.061Z,13.30
2022-11-09T08:59:18.161Z,13.30
2022-11-09T09:02:05.025Z,13.40
2022-11-09T09:04:50.882Z,13.50
2022-11-09T09:07:36.646Z,13.50
2022-11-09T09:10:22.864Z,13.50
2022-11-09T09:13:08.697Z,13.50
2022-11-09T09:15:54.386Z,13.60
2022-11-09T09:18:40.008Z,13.80
2022-11-09T09:21:25.933Z,13.80
2022-11-09T09:24:12.935Z,13.80
2022-11-09T09:26:58.264Z,13.90
2022-11-09T09:29:43.893Z,13.90
2022-11-09T09:32:31.341Z,14.00
2022-11-09T09:35:17.464Z,14.00
2022-11-09T09:38:03.130Z,13.90
2022-11-09T09:41:02.795Z,13.90
2022-11-09T09:43:52.705Z,13.90
2022-11-09T09:46:44.098Z,13.90
2022-11-09T09:49:32.997Z,13.90
2022-11-09T09:52:39.150Z,13.90
2022-11-09T09:55:40.484Z,13.90
2022-11-09T09:58:32.909Z,13.90
2022-11-09T10:01:21.368Z,13.80
2022-11-09T10:04:23.769Z,13.80
2022-11-09T10:07:14.502Z,13.80
2022-11-09T10:10:35.973Z,13.80
2022-11-09T10:13:55.614Z,13.80
2022-11-09T10:17:01.629Z,13.80
2022-11-09T10:20:01.728Z,13.90
2022-11-09T10:23:10.802Z,13.90
2022-11-09T10:26:07.811Z,14.00
2022-11-09T10:29:15.538Z,14.00
2022-11-09T10:32:10.404Z,14.10
2022-11-09T10:35:14.500Z,14.10
2022-11-09T10:38:00.858Z,14.20
2022-11-09T10:40:58.990Z,14.20
2022-11-09T10:44:04.384Z,14.20
2022-11-09T10:47:14.764Z,14.30
2022-11-09T10:50:34.753Z,14.30
2022-11-09T10:53:39.387Z,14.40
2022-11-09T10:57:06.346Z,14.30
2022-11-09T11:00:17.374Z,14.40
2022-11-09T11:03:25.045Z,14.40
2022-11-09T11:06:31.655Z,14.50
2022-11-09T11:09:36.588Z,14.40
2022-11-09T11:12:43.272Z,14.50
2022-11-09T11:15:48.665Z,14.50
2022-11-09T11:18:53.068Z,14.60
2022-11-09T11:22:15.146Z,14.60
2022-11-09T11:25:22.440Z,14.60
2022-11-09T11:28:40.123Z,14.60
2022-11-09T11:31:45.783Z,14.60
2022-11-09T11:35:05.479Z,14.60
2022-11-09T11:38:38.008Z,14.80
2022-11-09T11:42:02.220Z,15.10
2022-11-09T11:45:39.117Z,15.20
2022-11-09T11:49:00.871Z,15.30
2022-11-09T11:52:31.072Z,15.30
2022-11-09T11:55:39.154Z,15.20
2022-11-09T11:58:56.634Z,15.10
2022-11-09T12:02:29.716Z,15.20
2022-11-09T12:05:43.195Z,15.20
2022-11-09T12:09:26.694Z,15.10
2022-11-09T12:12:43.861Z,15.10
2022-11-09T12:15:49.331Z,15.20
2022-11-09T12:19:35.270Z,15.30
2022-11-09T12:22:48.938Z,15.30
2022-11-09T12:26:31.906Z,15.30
2022-11-09T12:30:18.324Z,15.20
2022-11-09T12:33:42.894Z,15.30
2022-11-09T12:37:13.695Z,15.30
2022-11-09T12:40:34.742Z,15.20
2022-11-09T12:43:51.256Z,15.20
2022-11-09T12:47:05.056Z,15.20
2022-11-09T12:50:18.497Z,15.10
2022-11-09T12:53:27.353Z,15.00
2022-11-09T12:56:37.173Z,15.00
2022-11-09T12:59:49.896Z,15.00
2022-11-09T13:03:00.582Z,15.00
2022-11-09T13:06:28.282Z,15.00
2022-11-09T13:09:44.454Z,15.00
2022-11-09T13:12:49.800Z,15.00
2022-11-09T13:16:33.293Z,14.90
2022-11-09T13:19:39.921Z,14.80
2022-11-09T13:22:45.617Z,14.70
2022-11-09T13:30:26.057Z,14.60
2022-11-09T13:33:31.752Z,14.50
2022-11-09T13:36:36.524Z,14.50
2022-11-09T13:39:41.449Z,14.50
2022-11-09T13:43:15.353Z,14.50
2022-11-09T13:46:33.676Z,14.40
2022-11-09T13:49:47.699Z,14.40
2022-11-09T13:52:55.862Z,14.30
2022-11-09T13:56:15.605Z,14.40
2022-11-09T13:59:28.809Z,14.40
2022-11-09T14:02:32.968Z,14.30
2022-11-09T14:05:39.423Z,14.30
2022-11-09T14:08:44.433Z,14.20
2022-11-09T14:11:58.024Z,14.20
2022-11-09T14:15:25.178Z,14.20
2022-11-09T14:18:50.830Z,14.20
2022-11-09T14:21:55.275Z,14.20
2022-11-09T14:25:03.831Z,14.20
2022-11-09T14:28:26.188Z,14.20
2022-11-09T14:31:31.152Z,14.20
2022-11-09T14:34:35.928Z,14.20
2022-11-09T14:37:45.136Z,14.20
2022-11-09T14:40:53.011Z,14.20
2022-11-09T14:43:59.789Z,14.30
2022-11-09T14:47:06.889Z,14.30
2022-11-09T14:50:17.841Z,14.30
2022-11-09T14:53:28.630Z,14.30
2022-11-09T14:56:35.772Z,14.20
2022-11-09T14:59:43.792Z,14.20
2022-11-09T15:02:48.835Z,14.20
2022-11-09T15:06:09.776Z,14.20
2022-11-09T15:09:18.109Z,14.20
2022-11-09T15:12:23.195Z,14.10
2022-11-09T15:15:32.371Z,14.10
2022-11-09T15:18:45.192Z,14.10
2022-11-09T15:21:50.156Z,14.10
2022-11-09T15:24:54.846Z,14.10
2022-11-09T15:28:08.614Z,14.10
2022-11-09T15:31:16.378Z,14.00
2022-11-09T15:34:24.623Z,14.00
2022-11-09T15:37:48.673Z,14.00
2022-11-09T15:40:52.785Z,14.00
2022-11-09T15:43:58.345Z,14.00
2022-11-09T15:47:04.059Z,14.00
2022-11-09T15:50:19.438Z,13.90
2022-11-09T15:53:24.097Z,13.90
2022-11-09T15:56:28.669Z,13.90
2022-11-09T15:59:37.091Z,13.90
2022-11-09T16:02:46.136Z,13.90
2022-11-09T16:05:50.439Z,13.90
2022-11-09T16:08:55.389Z,13.80
2022-11-09T16:12:00.170Z,13.80
2022-11-09T16:15:05.529Z,13.80
2022-11-09T16:18:11.403Z,13.80
2022-11-09T16:21:17.163Z,13.80
2022-11-09T16:24:21.961Z,13.80
2022-11-09T16:30:52.040Z,13.80
2022-11-09T16:33:56.399Z,13.80
2022-11-09T16:37:00.914Z,13.80
2022-11-09T16:40:11.966Z,13.80
2022-11-09T16:43:16.550Z,13.80
2022-11-09T16:46:24.352Z,13.80
2022-11-09T16:49:28.846Z,13.80
2022-11-09T16:52:33.245Z,13.80
2022-11-09T16:55:38.115Z,13.80
2022-11-09T16:58:42.464Z,13.80
2022-11-09T17:01:56.109Z,13.80
2022-11-09T17:05:00.727Z,13.80
2022-11-09T17:08:05.601Z,13.80
2022-11-09T17:11:12.512Z,13.80
2022-11-09T17:14:17.034Z,13.80
2022-11-09T17:17:22.912Z,13.80
2022-11-09T17:20:27.705Z,13.80
2022-11-09T17:23:33.799Z,13.80
2022-11-09T17:26:38.509Z,13.80
2022-11-09T17:29:43.017Z,13.80
2022-11-09T17:32:48.555Z,13.80
2022-11-09T17:36:00.953Z,13.80
2022-11-09T17:39:06.330Z,13.80
2022-11-09T17:42:10.907Z,13.80
2022-11-09T17:45:15.630Z,13.80
2022-11-09T17:48:20.219Z,13.70
2022-11-09T17:51:25.190Z,13.70
2022-11-09T17:54:35.482Z,13.70
2022-11-09T17:57:41.952Z,13.70
2022-11-09T18:00:46.708Z,13.70
2022-11-09T18:03:51.468Z,13.70
2022-11-09T18:06:56.245Z,13.70
2022-11-09T18:10:01.069Z,13.70
2022-11-09T18:13:06.908Z,13.60
2022-11-09T18:16:17.542Z,13.60
2022-11-09T18:19:22.470Z,13.60
2022-11-09T18:22:27.262Z,13.60
2022-11-09T18:25:31.864Z,13.60
2022-11-09T18:28:37.290Z,13.60
2022-11-09T18:31:41.960Z,13.60
2022-11-09T18:34:46.757Z,13.60
2022-11-09T18:37:51.528Z,13.60
2022-11-09T18:41:03.108Z,13.60
2022-11-09T18:44:07.786Z,13.50
2022-11-09T18:47:13.771Z,13.50
2022-11-09T18:50:19.529Z,13.50
2022-11-09T18:53:26.270Z,13.50
2022-11-09T18:56:30.565Z,13.50
2022-11-09T18:59:37.824Z,13.50
2022-11-09T19:02:42.478Z,13.50
2022-11-09T19:05:48.036Z,13.50
2022-11-09T19:09:11.401Z,13.50
2022-11-09T19:12:16.057Z,13.50
2022-11-09T19:15:20.823Z,13.50
2022-11-09T19:18:25.796Z,13.50
2022-11-09T19:21:57.011Z,13.40
2022-11-09T19:25:02.007Z,13.40
2022-11-09T19:28:06.459Z,13.40
2022-11-09T19:31:19.270Z,13.50
2022-11-09T19:34:23.953Z,13.50
2022-11-09T19:37:29.074Z,13.40
2022-11-09T19:40:38.559Z,13.40
2022-11-09T19:43:48.296Z,13.40
2022-11-09T19:46:52.952Z,13.40
2022-11-09T19:49:57.496Z,13.40
2022-11-09T19:53:02.175Z,13.40
2022-11-09T19:56:11.624Z,13.40
2022-11-09T19:59:17.115Z,13.40
2022-11-09T20:02:21.220Z,13.40
2022-11-09T20:05:25.878Z,13.40
2022-11-09T20:08:33.228Z,13.40
2022-11-09T20:11:56.224Z,13.40
2022-11-09T20:15:02.933Z,13.40
2022-11-09T20:18:07.693Z,13.40
2022-11-09T20:21:12.464Z,13.40
2022-11-09T20:24:17.275Z,13.30
2022-11-09T20:27:21.631Z,13.30
2022-11-09T20:30:26.389Z,13.30
2022-11-09T20:33:31.010Z,13.30
2022-11-09T20:36:35.901Z,13.30
2022-11-09T20:39:41.584Z,13.30
2022-11-09T20:42:46.221Z,13.20
2022-11-09T20:45:51.042Z,13.20
2022-11-09T20:48:56.144Z,13.20
2022-11-09T20:52:01.338Z,13.20
2022-11-09T20:55:07.522Z,13.20
2022-11-09T20:58:13.540Z,13.20
2022-11-09T21:01:25.010Z,13.10
2022-11-09T21:04:29.705Z,13.10
2022-11-09T21:07:34.557Z,13.10
2022-11-09T21:10:39.217Z,13.10
2022-11-09T21:13:44.360Z,13.00
2022-11-09T21:16:49.044Z,13.10
2022-11-09T21:19:53.488Z,13.10
2022-11-09T21:23:13.094Z,13.10
2022-11-09T21:26:36.033Z,13.10
2022-11-09T21:29:52.594Z,13.10
2022-11-09T21:32:56.967Z,13.10
2022-11-09T21:36:13.654Z,13.10
2022-11-09T21:39:18.512Z,13.10
2022-11-09T21:42:22.993Z,13.10
2022-11-09T21:45:27.426Z,13.10
2022-11-09T21:48:32.165Z,13.10
2022-11-09T21:51:38.438Z,13.10
2022-11-09T21:54:43.132Z,13.10
2022-11-09T21:57:50.998Z,13.10
2022-11-09T22:01:04.326Z,13.10
2022-11-09T22:04:09.632Z,13.10
2022-11-09T22:07:14.397Z,13.10
2022-11-09T22:10:18.804Z,13.10
2022-11-09T22:13:41.790Z,13.00
2022-11-09T22:16:46.530Z,13.00
2022-11-09T22:20:09.465Z,13.10
2022-11-09T22:23:13.727Z,13.10
2022-11-09T22:26:18.393Z,13.00
2022-11-09T22:29:23.211Z,13.00
2022-11-09T22:32:27.858Z,13.00
2022-11-09T22:35:32.305Z,13.00
2022-11-09T22:38:38.934Z,13.00
2022-11-09T22:41:43.450Z,13.00
2022-11-09T22:44:47.957Z,13.00
2022-11-09T22:47:52.501Z,13.00
2022-11-09T22:50:57.356Z,13.00
2022-11-09T22:54:01.837Z,13.00
2022-11-09T22:57:06.307Z,13.00
2022-11-09T23:00:14.074Z,13.00
2022-11-09T23:03:19.993Z,13.00
2022-11-09T23:06:25.410Z,13.00
2022-11-09T23:09:30.259Z,13.00
2022-11-09T23:12:35.039Z,13.00
2022-11-09T23:15:39.586Z,13.00
2022-11-09T23:18:56.128Z,13.00
2022-11-09T23:22:01.774Z,13.00
2022-11-09T23:25:25.744Z,13.00
2022-11-09T23:28:31.221Z,13.00
2022-11-09T23:31:36.003Z,13.00
2022-11-09T23:34:40.660Z,13.00
2022-11-09T23:37:45.255Z,13.10
2022-11-09T23:40:50.290Z,13.00
2022-11-09T23:43:56.174Z,13.00
2022-11-09T23:47:00.827Z,13.00
2022-11-09T23:50:06.083Z,13.00
2022-11-09T23:53:11.352Z,13.00
2022-11-09T23:56:15.778Z,13.00
2022-11-09T23:59:20.161Z,13.00
